createdAt,value
2023-02-15T00:00:40.123Z,22.40
2023-02-15T00:01:40.152Z,22.40
2023-02-15T00:02:40.124Z,22.40
2023-02-15T00:03:40.137Z,22.40
2023-02-15T00:55:25.020Z,21.98
2023-02-15T00:56:25.937Z,22.19
2023-02-15T00:57:25.849Z,22.25
2023-02-15T00:58:25.814Z,22.29
2023-02-15T00:59:25.788Z,22.31
2023-02-15T01:00:25.793Z,22.35
2023-02-15T01:01:25.758Z,22.35
2023-02-15T01:02:25.680Z,22.37
2023-02-15T01:03:25.652Z,22.37
2023-02-15T01:04:25.701Z,22.38
2023-02-15T01:05:25.590Z,22.38
2023-02-15T01:06:25.558Z,22.38
2023-02-15T01:07:25.533Z,22.38
2023-02-15T01:08:25.541Z,22.38
2023-02-15T01:09:25.473Z,22.39
2023-02-15T01:10:25.516Z,22.39
2023-02-15T01:11:25.448Z,22.39
2023-02-15T01:12:25.380Z,22.40
2023-02-15T01:13:25.352Z,22.40
2023-02-15T01:14:25.320Z,22.40
2023-02-15T01:15:25.289Z,22.40
2023-02-15T01:16:25.365Z,22.39
2023-02-15T01:17:25.217Z,22.40
2023-02-15T01:18:25.193Z,22.39
2023-02-15T01:19:25.163Z,22.40
2023-02-15T01:20:25.167Z,22.40
2023-02-15T01:21:25.096Z,22.40
2023-02-15T01:22:25.093Z,22.40
2023-02-15T01:23:25.031Z,22.40
2023-02-15T01:24:24.998Z,22.40
2023-02-15T01:25:24.962Z,22.40
2023-02-15T01:26:24.931Z,22.40
2023-02-15T01:27:25.008Z,22.40
2023-02-15T01:28:24.868Z,22.40
2023-02-15T01:29:24.840Z,22.40
2023-02-15T01:30:24.928Z,22.40
2023-02-15T01:31:24.876Z,22.40
2023-02-15T01:32:24.739Z,22.40
2023-02-15T01:33:24.713Z,22.39
2023-02-15T01:34:24.675Z,22.40
2023-02-15T01:35:24.645Z,22.40
2023-02-15T01:36:24.647Z,22.40
2023-02-15T01:37:24.590Z,22.40
2023-02-15T01:38:24.554Z,22.39
2023-02-15T01:39:24.514Z,22.40
2023-02-15T01:40:24.485Z,22.40
2023-02-15T01:41:24.638Z,22.39
2023-02-15T01:42:24.424Z,22.40
2023-02-15T01:43:24.410Z,22.40
2023-02-15T01:44:24.357Z,22.40
2023-02-15T01:45:24.323Z,22.40
2023-02-15T01:46:24.483Z,22.40
2023-02-15T01:47:24.276Z,22.40
2023-02-15T01:48:24.228Z,22.40
2023-02-15T01:49:24.189Z,22.40
2023-02-15T01:50:24.200Z,22.39
2023-02-15T01:51:24.147Z,22.40
2023-02-15T01:52:24.089Z,22.40
2023-02-15T01:53:24.037Z,22.40
2023-02-15T01:54:24.008Z,22.40
2023-02-15T01:55:24.003Z,22.40
2023-02-15T01:56:23.980Z,22.39
2023-02-15T01:57:23.907Z,22.40
2023-02-15T01:58:23.876Z,22.40
2023-02-15T01:59:23.864Z,22.40
2023-02-15T02:00:23.799Z,22.40
2023-02-15T02:01:23.779Z,22.40
2023-02-15T02:02:23.792Z,22.40
2023-02-15T02:03:23.694Z,22.40
2023-02-15T02:04:23.659Z,22.39
2023-02-15T02:05:23.662Z,22.40
2023-02-15T02:06:25.416Z,22.39
2023-02-15T02:07:23.615Z,22.39
2023-02-15T02:08:23.514Z,22.39
2023-02-15T02:09:23.478Z,22.40
2023-02-15T02:10:23.454Z,22.40
2023-02-15T02:11:23.412Z,22.39
2023-02-15T02:12:23.419Z,22.40
2023-02-15T02:13:23.355Z,22.39
2023-02-15T02:14:23.332Z,22.39
2023-02-15T02:15:23.313Z,22.40
2023-02-15T02:16:23.322Z,22.39
2023-02-15T02:17:23.307Z,22.39
2023-02-15T02:18:23.207Z,22.39
2023-02-15T02:19:23.176Z,22.39
2023-02-15T02:20:23.143Z,22.39
2023-02-15T02:21:23.113Z,22.38
2023-02-15T02:22:23.116Z,22.39
2023-02-15T02:23:23.044Z,22.39
2023-02-15T02:24:23.007Z,22.38
2023-02-15T02:25:22.987Z,22.39
2023-02-15T02:26:22.944Z,22.38
2023-02-15T02:27:22.908Z,22.38
2023-02-15T02:28:22.884Z,22.39
2023-02-15T02:29:22.843Z,22.39
2023-02-15T02:30:22.959Z,22.38
2023-02-15T02:31:23.009Z,22.39
2023-02-15T02:32:22.774Z,22.39
2023-02-15T02:33:22.701Z,22.39
2023-02-15T02:34:22.671Z,22.38
2023-02-15T02:35:22.640Z,22.38
2023-02-15T02:36:22.618Z,22.38
2023-02-15T02:37:22.649Z,22.39
2023-02-15T02:38:22.543Z,22.39
2023-02-15T02:39:22.524Z,22.39
2023-02-15T02:40:22.487Z,22.38
2023-02-15T02:41:22.456Z,22.39
2023-02-15T02:42:22.432Z,22.38
2023-02-15T02:43:22.397Z,22.38
2023-02-15T02:44:22.357Z,22.38
2023-02-15T02:45:22.333Z,22.38
2023-02-15T02:46:22.351Z,22.38
2023-02-15T02:47:22.315Z,22.37
2023-02-15T02:48:22.256Z,22.37
2023-02-15T02:49:22.202Z,22.37
2023-02-15T02:50:22.177Z,22.37
2023-02-15T02:51:22.130Z,22.37
2023-02-15T02:52:22.123Z,22.36
2023-02-15T02:53:22.063Z,22.36
2023-02-15T02:54:22.030Z,22.37
2023-02-15T02:55:21.991Z,22.36
2023-02-15T02:56:21.945Z,22.37
2023-02-15T02:57:21.966Z,22.37
2023-02-15T02:58:21.892Z,22.37
2023-02-15T02:59:21.844Z,22.37
2023-02-15T03:00:21.806Z,22.37
2023-02-15T03:01:21.827Z,22.37
2023-02-15T03:02:21.775Z,22.36
2023-02-15T03:03:21.732Z,22.36
2023-02-15T03:04:21.675Z,22.36
2023-02-15T03:05:21.645Z,22.36
2023-02-15T03:06:21.602Z,22.36
2023-02-15T03:07:21.569Z,22.36
2023-02-15T03:08:21.567Z,22.36
2023-02-15T03:09:21.527Z,22.36
2023-02-15T03:10:21.476Z,22.35
2023-02-15T03:11:21.448Z,22.35
2023-02-15T03:12:21.434Z,22.36
2023-02-15T03:13:21.401Z,22.35
2023-02-15T03:14:21.374Z,22.35
2023-02-15T03:15:21.356Z,22.35
2023-02-15T03:16:21.382Z,22.36
2023-02-15T03:17:21.315Z,22.35
2023-02-15T03:18:21.256Z,22.36
2023-02-15T03:19:21.244Z,22.35
2023-02-15T03:20:21.196Z,22.35
2023-02-15T03:21:21.159Z,22.36
2023-02-15T03:22:21.124Z,22.35
2023-02-15T03:23:21.088Z,22.36
2023-02-15T03:24:21.091Z,22.35
2023-02-15T03:25:21.020Z,22.35
2023-02-15T03:26:20.967Z,22.36
2023-02-15T03:27:20.931Z,22.36
2023-02-15T03:28:20.932Z,22.36
2023-02-15T03:29:20.863Z,22.35
2023-02-15T03:30:20.930Z,22.35
2023-02-15T03:31:20.952Z,22.35
2023-02-15T03:32:20.829Z,22.35
2023-02-15T03:33:20.729Z,22.36
2023-02-15T03:34:20.716Z,22.36
2023-02-15T03:35:20.683Z,22.35
2023-02-15T03:36:20.625Z,22.35
2023-02-15T03:37:20.596Z,22.35
2023-02-15T03:38:20.590Z,22.35
2023-02-15T03:39:20.516Z,22.35
2023-02-15T03:40:20.484Z,22.35
2023-02-15T03:41:20.446Z,22.35
2023-02-15T03:42:20.418Z,22.35
2023-02-15T03:43:20.381Z,22.35
2023-02-15T03:44:20.395Z,22.34
2023-02-15T03:45:20.293Z,22.35
2023-02-15T03:46:20.286Z,22.34
2023-02-15T03:47:20.213Z,22.35
2023-02-15T03:48:20.178Z,22.35
2023-02-15T03:49:20.174Z,22.34
2023-02-15T03:50:20.098Z,22.35
2023-02-15T03:51:20.079Z,22.36
2023-02-15T03:52:20.019Z,22.35
2023-02-15T03:53:21.854Z,22.35
2023-02-15T03:54:19.960Z,22.35
2023-02-15T03:55:19.889Z,22.35
2023-02-15T03:56:19.849Z,22.35
2023-02-15T03:57:19.817Z,22.35
2023-02-15T03:58:19.787Z,22.36
2023-02-15T03:59:19.740Z,22.35
2023-02-15T04:00:19.737Z,22.36
2023-02-15T04:01:19.707Z,22.35
2023-02-15T04:02:19.607Z,22.36
2023-02-15T04:03:19.671Z,22.36
2023-02-15T04:04:19.534Z,22.35
2023-02-15T04:05:19.494Z,22.35
2023-02-15T04:06:19.449Z,22.34
2023-02-15T04:07:19.434Z,22.35
2023-02-15T04:08:19.363Z,22.35
2023-02-15T04:09:19.322Z,22.35
2023-02-15T04:10:19.320Z,22.35
2023-02-15T04:11:19.249Z,22.35
2023-02-15T04:12:19.210Z,22.35
2023-02-15T04:13:19.167Z,22.35
2023-02-15T04:14:19.135Z,22.34
2023-02-15T04:15:19.129Z,22.35
2023-02-15T04:16:19.080Z,22.35
2023-02-15T04:17:19.038Z,22.35
2023-02-15T04:18:18.997Z,22.34
2023-02-15T04:19:18.965Z,22.34
2023-02-15T04:20:18.961Z,22.34
2023-02-15T04:21:18.904Z,22.35
2023-02-15T04:22:18.866Z,22.35
2023-02-15T04:23:18.843Z,22.34
2023-02-15T04:24:18.782Z,22.35
2023-02-15T04:25:18.755Z,22.35
2023-02-15T04:26:18.712Z,22.35
2023-02-15T04:27:18.667Z,22.35
2023-02-15T04:28:18.636Z,22.35
2023-02-15T04:29:18.586Z,22.35
2023-02-15T04:30:18.635Z,22.35
2023-02-15T04:31:18.625Z,22.35
2023-02-15T04:32:18.486Z,22.34
2023-02-15T04:33:18.421Z,22.35
2023-02-15T04:34:18.387Z,22.35
2023-02-15T04:35:18.341Z,22.35
2023-02-15T04:36:18.335Z,22.35
2023-02-15T04:37:18.266Z,22.35
2023-02-15T04:38:18.224Z,22.35
2023-02-15T04:39:18.214Z,22.36
2023-02-15T04:40:19.711Z,22.35
2023-02-15T04:41:18.358Z,22.35
2023-02-15T04:42:18.257Z,22.35
2023-02-15T04:43:18.226Z,22.35
2023-02-15T04:44:18.184Z,22.36
2023-02-15T04:45:18.147Z,22.36
2023-02-15T04:46:18.162Z,22.35
2023-02-15T04:47:18.060Z,22.35
2023-02-15T04:48:18.085Z,22.36
2023-02-15T04:49:17.980Z,22.35
2023-02-15T04:50:17.955Z,22.35
2023-02-15T04:51:17.898Z,22.35
2023-02-15T04:52:17.851Z,22.35
2023-02-15T04:53:17.808Z,22.35
2023-02-15T04:54:17.769Z,22.35
2023-02-15T04:55:17.754Z,22.34
2023-02-15T04:56:17.704Z,22.34
2023-02-15T04:57:17.643Z,22.34
2023-02-15T04:58:17.604Z,22.35
2023-02-15T04:59:17.561Z,22.34
2023-02-15T05:00:17.522Z,22.35
2023-02-15T05:01:17.521Z,22.34
2023-02-15T05:02:17.447Z,22.35
2023-02-15T05:03:19.560Z,22.35
2023-02-15T05:04:17.384Z,22.35
2023-02-15T05:05:17.332Z,22.36
2023-02-15T05:06:17.283Z,22.35
2023-02-15T05:07:17.252Z,22.35
2023-02-15T05:08:17.292Z,22.35
2023-02-15T05:09:17.180Z,22.35
2023-02-15T05:10:17.155Z,22.35
2023-02-15T05:11:17.145Z,22.35
2023-02-15T05:12:17.086Z,22.35
2023-02-15T05:13:17.084Z,22.35
2023-02-15T05:14:17.011Z,22.35
2023-02-15T05:15:16.975Z,22.35
2023-02-15T05:16:16.966Z,22.35
2023-02-15T05:17:16.904Z,22.35
2023-02-15T05:18:16.904Z,22.35
2023-02-15T05:19:16.817Z,22.35
2023-02-15T05:20:16.779Z,22.35
2023-02-15T05:21:16.739Z,22.34
2023-02-15T05:22:16.705Z,22.34
2023-02-15T05:23:16.712Z,22.34
2023-02-15T05:24:16.632Z,22.35
2023-02-15T05:25:16.669Z,22.35
2023-02-15T05:26:16.571Z,22.34
2023-02-15T05:27:16.567Z,22.34
2023-02-15T05:28:16.491Z,22.33
2023-02-15T05:29:16.460Z,22.34
2023-02-15T05:30:16.588Z,22.33
2023-02-15T05:31:16.688Z,22.34
2023-02-15T05:32:16.531Z,22.34
2023-02-15T05:33:16.307Z,22.34
2023-02-15T05:34:16.269Z,22.34
2023-02-15T05:35:16.257Z,22.34
2023-02-15T05:36:16.202Z,22.34
2023-02-15T05:37:16.156Z,22.34
2023-02-15T05:38:15.120Z,22.33
2023-02-15T05:39:16.079Z,22.34
2023-02-15T05:40:16.076Z,22.34
2023-02-15T05:41:16.000Z,22.34
2023-02-15T05:42:15.964Z,22.35
2023-02-15T05:43:15.953Z,22.35
2023-02-15T05:44:15.968Z,22.35
2023-02-15T05:45:15.859Z,22.35
2023-02-15T05:46:15.904Z,22.35
2023-02-15T05:47:15.806Z,22.35
2023-02-15T05:48:15.748Z,22.35
2023-02-15T05:49:15.764Z,22.35
2023-02-15T05:50:15.675Z,22.35
2023-02-15T05:51:15.638Z,22.35
2023-02-15T05:52:15.606Z,22.34
2023-02-15T05:53:15.581Z,22.34
2023-02-15T05:54:15.553Z,22.34
2023-02-15T05:55:15.523Z,22.35
2023-02-15T05:56:15.514Z,22.34
2023-02-15T05:57:15.468Z,22.34
2023-02-15T05:58:15.427Z,22.34
2023-02-15T05:59:15.415Z,22.34
2023-02-15T06:00:15.357Z,22.34
2023-02-15T06:01:15.317Z,22.35
2023-02-15T06:02:15.347Z,22.34
2023-02-15T06:03:15.312Z,22.34
2023-02-15T06:04:15.222Z,22.35
2023-02-15T06:05:15.198Z,22.35
2023-02-15T06:06:15.159Z,22.34
2023-02-15T06:07:15.144Z,22.35
2023-02-15T06:08:15.091Z,22.35
2023-02-15T06:09:15.078Z,22.35
2023-02-15T06:10:15.018Z,22.34
2023-02-15T06:11:14.997Z,22.34
2023-02-15T06:12:14.971Z,22.34
2023-02-15T06:13:14.918Z,22.34
2023-02-15T06:14:14.877Z,22.34
2023-02-15T06:15:14.880Z,22.34
2023-02-15T06:16:14.871Z,22.33
2023-02-15T06:17:14.771Z,22.34
2023-02-15T06:18:14.729Z,22.34
2023-02-15T06:19:14.689Z,22.33
2023-02-15T06:20:14.643Z,22.33
2023-02-15T06:21:14.614Z,22.34
2023-02-15T06:22:14.573Z,22.34
2023-02-15T06:23:14.542Z,22.34
2023-02-15T06:24:14.505Z,22.34
2023-02-15T06:25:14.464Z,22.34
2023-02-15T06:26:14.484Z,22.33
2023-02-15T06:27:14.452Z,22.34
2023-02-15T06:28:14.355Z,22.33
2023-02-15T06:29:14.323Z,22.33
2023-02-15T06:30:14.352Z,22.33
2023-02-15T06:31:14.434Z,22.34
2023-02-15T06:32:14.261Z,22.34
2023-02-15T06:33:14.173Z,22.34
2023-02-15T06:34:14.128Z,22.34
2023-02-15T06:35:14.092Z,22.34
2023-02-15T06:36:14.109Z,22.34
2023-02-15T06:37:14.010Z,22.34
2023-02-15T06:38:13.983Z,22.34
2023-02-15T06:39:13.942Z,22.34
2023-02-15T06:40:13.896Z,22.35
2023-02-15T06:41:13.886Z,22.35
2023-02-15T06:42:13.817Z,22.34
2023-02-15T06:43:13.781Z,22.34
2023-02-15T06:44:13.778Z,22.35
2023-02-15T06:45:13.705Z,22.34
2023-02-15T06:46:13.706Z,22.35
2023-02-15T06:47:13.659Z,22.34
2023-02-15T06:48:13.598Z,22.34
2023-02-15T06:49:13.590Z,22.35
2023-02-15T06:50:13.524Z,22.35
2023-02-15T06:51:13.488Z,22.35
2023-02-15T06:52:14.342Z,22.34
2023-02-15T06:53:13.416Z,22.36
2023-02-15T06:54:13.378Z,22.35
2023-02-15T06:55:13.384Z,22.36
2023-02-15T06:56:13.313Z,22.36
2023-02-15T06:57:13.290Z,22.35
2023-02-15T06:58:13.245Z,22.35
2023-02-15T06:59:13.247Z,22.36
2023-02-15T07:00:13.205Z,22.35
2023-02-15T07:01:13.161Z,22.35
2023-02-15T07:02:13.064Z,22.36
2023-02-15T07:03:13.052Z,22.35
2023-02-15T07:04:12.995Z,22.35
2023-02-15T07:05:13.045Z,22.36
2023-02-15T07:06:12.919Z,22.36
2023-02-15T07:07:12.874Z,22.36
2023-02-15T07:08:12.837Z,22.36
2023-02-15T07:09:12.806Z,22.36
2023-02-15T07:10:12.771Z,22.36
2023-02-15T07:11:12.727Z,22.37
2023-02-15T07:12:12.697Z,22.37
2023-02-15T07:13:12.662Z,22.37
2023-02-15T07:14:12.629Z,22.37
2023-02-15T07:15:12.578Z,22.37
2023-02-15T07:16:12.583Z,22.36
2023-02-15T07:17:34.485Z,22.36
2023-02-15T07:18:12.472Z,22.35
2023-02-15T07:19:12.460Z,22.36
2023-02-15T07:20:12.404Z,22.37
2023-02-15T07:21:12.355Z,22.36
2023-02-15T07:22:12.351Z,22.37
2023-02-15T07:23:12.283Z,22.37
2023-02-15T07:24:12.248Z,22.37
2023-02-15T07:25:12.235Z,22.37
2023-02-15T07:26:12.181Z,22.37
2023-02-15T07:27:13.577Z,22.37
2023-02-15T07:28:12.159Z,22.36
2023-02-15T07:29:12.120Z,22.37
2023-02-15T07:30:12.152Z,22.37
2023-02-15T07:31:12.163Z,22.36
2023-02-15T07:32:12.109Z,22.37
2023-02-15T07:33:11.993Z,22.37
2023-02-15T07:34:11.939Z,22.37
2023-02-15T07:35:11.922Z,22.36
2023-02-15T07:36:11.860Z,22.37
2023-02-15T07:37:11.810Z,22.37
2023-02-15T07:38:11.773Z,22.37
2023-02-15T07:39:11.745Z,22.37
2023-02-15T07:40:11.701Z,22.37
2023-02-15T07:41:11.662Z,22.37
2023-02-15T07:42:11.620Z,22.37
2023-02-15T07:43:11.584Z,22.38
2023-02-15T07:44:11.554Z,22.38
2023-02-15T07:45:11.522Z,22.37
2023-02-15T07:46:11.507Z,22.37
2023-02-15T07:47:11.457Z,22.38
2023-02-15T07:48:11.411Z,22.39
2023-02-15T07:49:11.383Z,22.38
2023-02-15T07:50:11.357Z,22.38
2023-02-15T07:51:11.345Z,22.38
2023-02-15T07:52:11.298Z,22.38
2023-02-15T07:53:11.258Z,22.38
2023-02-15T07:54:11.240Z,22.38
2023-02-15T07:55:11.192Z,22.38
2023-02-15T07:56:11.171Z,22.38
2023-02-15T07:57:11.128Z,22.39
2023-02-15T07:58:11.094Z,22.39
2023-02-15T07:59:11.053Z,22.39
2023-02-15T08:00:11.023Z,22.39
2023-02-15T08:01:10.981Z,22.40
2023-02-15T08:02:10.947Z,22.40
2023-02-15T08:03:11.205Z,22.40
2023-02-15T08:04:10.879Z,22.41
2023-02-15T08:05:10.838Z,22.42
2023-02-15T08:06:10.811Z,22.43
2023-02-15T08:07:10.804Z,22.43
2023-02-15T08:08:10.745Z,22.44
2023-02-15T08:09:10.711Z,22.45
2023-02-15T08:10:10.666Z,22.45
2023-02-15T08:11:10.634Z,22.45
2023-02-15T08:12:10.607Z,22.46
2023-02-15T08:13:10.576Z,22.46
2023-02-15T08:14:10.558Z,22.47
2023-02-15T08:15:10.506Z,22.47
2023-02-15T08:16:13.015Z,22.48
2023-02-15T08:17:10.446Z,22.47
2023-02-15T08:18:10.396Z,22.48
2023-02-15T08:19:10.352Z,22.49
2023-02-15T08:20:10.310Z,22.48
2023-02-15T08:21:10.298Z,22.48
2023-02-15T08:22:10.277Z,22.49
2023-02-15T08:23:10.302Z,22.49
2023-02-15T08:24:10.232Z,22.49
2023-02-15T08:25:10.164Z,22.50
2023-02-15T08:26:10.100Z,22.50
2023-02-15T08:27:10.058Z,22.50
2023-02-15T08:28:10.022Z,22.50
2023-02-15T08:29:10.001Z,22.51
2023-02-15T08:30:10.000Z,22.51
2023-02-15T08:31:10.079Z,22.51
2023-02-15T08:32:09.959Z,22.52
2023-02-15T08:33:09.838Z,22.51
2023-02-15T08:34:09.815Z,22.51
2023-02-15T08:35:09.769Z,22.51
2023-02-15T08:36:09.740Z,22.52
2023-02-15T08:37:09.693Z,22.53
2023-02-15T08:38:09.654Z,22.53
2023-02-15T08:39:09.662Z,22.52
2023-02-15T08:40:09.585Z,22.53
2023-02-15T08:41:09.548Z,22.52
2023-02-15T08:42:09.511Z,22.54
2023-02-15T08:43:09.472Z,22.54
2023-02-15T08:44:09.439Z,22.54
2023-02-15T08:45:09.402Z,22.55
2023-02-15T08:46:09.412Z,22.55
2023-02-15T08:47:09.317Z,22.55
2023-02-15T08:48:09.279Z,22.56
2023-02-15T08:49:09.239Z,22.55
2023-02-15T08:50:09.269Z,22.55
2023-02-15T08:51:09.166Z,22.56
2023-02-15T08:52:09.129Z,22.56
2023-02-15T08:53:09.086Z,22.56
2023-02-15T08:54:09.040Z,22.56
2023-02-15T08:55:09.084Z,22.57
2023-02-15T08:56:08.966Z,22.57
2023-02-15T08:57:08.927Z,22.57
2023-02-15T08:58:08.887Z,22.57
2023-02-15T08:59:08.858Z,22.57
2023-02-15T09:00:08.812Z,22.57
2023-02-15T09:01:08.878Z,22.57
2023-02-15T09:02:08.789Z,22.57
2023-02-15T09:03:08.681Z,22.56
2023-02-15T09:04:08.641Z,22.57
2023-02-15T09:05:08.599Z,22.57
2023-02-15T09:06:08.565Z,22.57
2023-02-15T09:07:08.527Z,22.57
2023-02-15T09:08:08.488Z,22.56
2023-02-15T09:09:08.481Z,22.57
2023-02-15T09:10:08.411Z,22.57
2023-02-15T09:11:08.394Z,22.57
2023-02-15T09:12:08.318Z,22.57
2023-02-15T09:13:08.286Z,22.57
2023-02-15T09:14:08.237Z,22.57
2023-02-15T09:15:08.201Z,22.58
2023-02-15T09:16:08.247Z,22.58
2023-02-15T09:17:08.119Z,22.58
2023-02-15T09:18:08.104Z,22.57
2023-02-15T09:19:08.051Z,22.58
2023-02-15T09:20:08.011Z,22.58
2023-02-15T09:21:07.980Z,22.58
2023-02-15T09:22:07.938Z,22.58
2023-02-15T09:23:13.732Z,22.58
2023-02-15T09:24:07.868Z,22.57
2023-02-15T09:25:07.834Z,22.57
2023-02-15T09:26:07.800Z,22.58
2023-02-15T09:27:07.796Z,22.58
2023-02-15T09:28:07.732Z,22.58
2023-02-15T09:29:07.700Z,22.59
2023-02-15T09:30:07.681Z,22.58
2023-02-15T09:31:07.669Z,22.58
2023-02-15T09:32:07.620Z,22.59
2023-02-15T09:33:07.566Z,22.59
2023-02-15T09:34:07.521Z,22.58
2023-02-15T09:35:07.501Z,22.58
2023-02-15T09:36:07.454Z,22.59
2023-02-15T09:37:07.442Z,22.59
2023-02-15T09:38:07.379Z,22.59
2023-02-15T09:39:07.346Z,22.59
2023-02-15T09:40:07.313Z,22.59
2023-02-15T09:41:07.277Z,22.59
2023-02-15T09:42:07.242Z,22.60
2023-02-15T09:43:07.236Z,22.60
2023-02-15T09:44:07.174Z,22.60
2023-02-15T09:45:07.136Z,22.60
2023-02-15T09:46:07.149Z,22.59
2023-02-15T09:47:07.072Z,22.59
2023-02-15T09:48:07.027Z,22.60
2023-02-15T09:49:06.991Z,22.59
2023-02-15T09:50:06.954Z,22.60
2023-02-15T09:51:06.926Z,22.60
2023-02-15T09:52:06.877Z,22.60
2023-02-15T09:53:06.829Z,22.60
2023-02-15T09:54:06.798Z,22.60
2023-02-15T09:55:06.744Z,22.60
2023-02-15T09:56:06.703Z,22.60
2023-02-15T09:57:06.669Z,22.60
2023-02-15T09:58:06.627Z,22.61
2023-02-15T09:59:06.598Z,22.60
2023-02-15T10:00:06.545Z,22.60
2023-02-15T10:01:06.517Z,22.61
2023-02-15T10:02:06.447Z,22.60
2023-02-15T10:03:06.404Z,22.61
2023-02-15T10:04:06.451Z,22.60
2023-02-15T10:05:06.331Z,22.60
2023-02-15T10:06:06.286Z,22.60
2023-02-15T10:07:06.235Z,22.60
2023-02-15T10:08:06.196Z,22.60
2023-02-15T10:09:06.148Z,22.60
2023-02-15T10:10:06.107Z,22.60
2023-02-15T10:11:06.061Z,22.60
2023-02-15T10:12:06.019Z,22.60
2023-02-15T10:13:05.975Z,22.60
2023-02-15T10:14:05.924Z,22.61
2023-02-15T10:15:05.922Z,22.60
2023-02-15T10:16:05.846Z,22.61
2023-02-15T10:17:05.824Z,22.61
2023-02-15T10:18:05.766Z,22.60
2023-02-15T10:19:05.716Z,22.61
2023-02-15T10:20:05.674Z,22.61
2023-02-15T10:21:05.713Z,22.61
2023-02-15T10:22:05.580Z,22.61
2023-02-15T10:23:05.551Z,22.61
2023-02-15T10:24:05.497Z,22.62
2023-02-15T10:25:05.460Z,22.61
2023-02-15T10:26:05.510Z,22.61
2023-02-15T10:27:05.369Z,22.62
2023-02-15T10:28:06.028Z,22.62
2023-02-15T10:29:05.283Z,22.61
2023-02-15T10:30:05.275Z,22.61
2023-02-15T10:31:05.704Z,22.62
2023-02-15T10:32:05.300Z,22.61
2023-02-15T10:33:05.125Z,22.61
2023-02-15T10:34:05.078Z,22.61
2023-02-15T10:35:05.046Z,22.62
2023-02-15T10:36:05.001Z,22.62
2023-02-15T10:37:04.964Z,22.61
2023-02-15T10:38:04.926Z,22.61
2023-02-15T10:39:04.884Z,22.61
2023-02-15T10:40:04.848Z,22.62
2023-02-15T10:41:04.949Z,22.61
2023-02-15T10:42:04.779Z,22.61
2023-02-15T10:43:04.720Z,22.61
2023-02-15T10:44:04.712Z,22.61
2023-02-15T10:45:04.643Z,22.62
2023-02-15T10:46:04.721Z,22.62
2023-02-15T10:47:04.628Z,22.62
2023-02-15T10:48:04.505Z,22.62
2023-02-15T10:49:04.474Z,22.62
2023-02-15T10:50:04.437Z,22.62
2023-02-15T10:51:04.581Z,22.62
2023-02-15T10:52:04.353Z,22.62
2023-02-15T10:53:04.314Z,22.62
2023-02-15T10:54:04.287Z,22.62
2023-02-15T10:55:04.228Z,22.62
2023-02-15T10:56:04.187Z,22.62
2023-02-15T10:57:04.153Z,22.62
2023-02-15T10:58:04.081Z,22.62
2023-02-15T10:59:04.056Z,22.62
2023-02-15T11:00:04.001Z,22.62
2023-02-15T11:01:04.302Z,22.62
2023-02-15T11:02:03.912Z,22.62
2023-02-15T11:03:03.882Z,22.62
2023-02-15T11:04:03.807Z,22.63
2023-02-15T11:05:03.901Z,22.63
2023-02-15T11:06:03.715Z,22.62
2023-02-15T11:07:03.664Z,22.63
2023-02-15T11:08:03.629Z,22.63
2023-02-15T11:09:03.586Z,22.63
2023-02-15T11:10:03.542Z,22.63
2023-02-15T11:11:03.873Z,22.63
2023-02-15T11:12:03.454Z,22.63
2023-02-15T11:13:03.417Z,22.63
2023-02-15T11:14:03.398Z,22.63
2023-02-15T11:15:03.333Z,22.62
2023-02-15T11:16:03.457Z,22.63
2023-02-15T11:17:03.249Z,22.63
2023-02-15T11:18:03.213Z,22.63
2023-02-15T11:19:03.256Z,22.63
2023-02-15T11:20:03.116Z,22.64
2023-02-15T11:21:03.581Z,22.64
2023-02-15T11:22:03.042Z,22.64
2023-02-15T11:23:03.024Z,22.63
2023-02-15T11:24:02.963Z,22.63
2023-02-15T11:25:02.925Z,22.63
2023-02-15T11:26:02.885Z,22.63
2023-02-15T11:27:02.915Z,22.63
2023-02-15T11:28:02.784Z,22.63
2023-02-15T11:29:02.744Z,22.64
2023-02-15T11:30:02.806Z,22.64
2023-02-15T11:31:03.112Z,22.64
2023-02-15T11:32:02.797Z,22.64
2023-02-15T11:33:02.584Z,22.64
2023-02-15T11:34:02.565Z,22.63
2023-02-15T11:35:02.545Z,22.64
2023-02-15T11:36:02.460Z,22.64
2023-02-15T11:37:02.441Z,22.65
2023-02-15T11:38:02.379Z,22.64
2023-02-15T11:39:02.323Z,22.65
2023-02-15T11:40:02.304Z,22.64
2023-02-15T11:41:02.610Z,22.65
2023-02-15T11:42:02.208Z,22.65
2023-02-15T11:43:02.172Z,22.65
2023-02-15T11:44:02.129Z,22.64
2023-02-15T11:45:02.170Z,22.64
2023-02-15T11:46:02.115Z,22.64
2023-02-15T11:47:02.032Z,22.64
2023-02-15T11:48:01.979Z,22.65
2023-02-15T11:49:01.937Z,22.64
2023-02-15T11:50:01.893Z,22.65
2023-02-15T11:51:02.337Z,22.65
2023-02-15T11:52:01.828Z,22.65
2023-02-15T11:53:01.801Z,22.65
2023-02-15T11:54:01.733Z,22.65
2023-02-15T11:55:01.702Z,22.65
2023-02-15T11:56:01.666Z,22.65
2023-02-15T11:57:01.613Z,22.65
2023-02-15T11:58:01.578Z,22.65
2023-02-15T11:59:01.556Z,22.65
2023-02-15T12:00:01.494Z,22.65
2023-02-15T12:01:01.714Z,22.65
2023-02-15T12:02:01.411Z,22.65
2023-02-15T12:03:01.473Z,22.64
2023-02-15T12:04:01.350Z,22.65
2023-02-15T12:05:01.302Z,22.66
2023-02-15T12:06:01.258Z,22.65
2023-02-15T12:07:03.268Z,22.65
2023-02-15T12:08:01.198Z,22.66
2023-02-15T12:09:01.160Z,22.65
2023-02-15T12:10:01.153Z,22.65
2023-02-15T12:11:01.415Z,22.66
2023-02-15T12:12:01.046Z,22.65
2023-02-15T12:13:01.014Z,22.66
2023-02-15T12:14:00.985Z,22.65
2023-02-15T12:15:00.971Z,22.66
2023-02-15T12:16:00.921Z,22.66
2023-02-15T12:17:00.868Z,22.65
2023-02-15T12:18:00.829Z,22.65
2023-02-15T12:19:00.784Z,22.65
2023-02-15T12:20:00.753Z,22.66
2023-02-15T12:21:01.002Z,22.66
2023-02-15T12:22:00.672Z,22.65
2023-02-15T12:23:00.665Z,22.66
2023-02-15T12:24:00.594Z,22.66
2023-02-15T12:25:00.580Z,22.66
2023-02-15T12:26:00.526Z,22.66
2023-02-15T12:27:00.500Z,22.66
2023-02-15T12:28:00.447Z,22.66
2023-02-15T12:29:00.408Z,22.66
2023-02-15T12:30:00.406Z,22.66
2023-02-15T12:31:00.830Z,22.66
2023-02-15T12:32:00.395Z,22.66
2023-02-15T12:33:00.240Z,22.65
2023-02-15T12:34:00.195Z,22.66
2023-02-15T12:35:01.519Z,22.65
2023-02-15T12:36:00.410Z,22.65
2023-02-15T12:37:00.091Z,22.66
2023-02-15T12:38:00.025Z,22.66
2023-02-15T12:39:00.007Z,22.66
2023-02-15T12:39:59.944Z,22.65
2023-02-15T12:41:00.046Z,22.66
2023-02-15T12:41:59.862Z,22.65
2023-02-15T12:42:59.823Z,22.66
2023-02-15T12:43:59.776Z,22.66
2023-02-15T12:44:59.757Z,22.66
2023-02-15T12:46:00.229Z,22.66
2023-02-15T12:46:59.842Z,22.66
2023-02-15T12:47:59.610Z,22.66
2023-02-15T12:48:59.571Z,22.65
2023-02-15T12:49:59.535Z,22.66
2023-02-15T12:50:59.507Z,22.65
2023-02-15T12:51:59.454Z,22.65
2023-02-15T12:52:59.410Z,22.66
2023-02-15T12:53:59.362Z,22.66
2023-02-15T12:54:59.345Z,22.65
2023-02-15T12:55:59.281Z,22.66
2023-02-15T12:56:59.228Z,22.66
2023-02-15T12:57:59.188Z,22.66
2023-02-15T12:58:59.146Z,22.66
2023-02-15T12:59:59.119Z,22.66
2023-02-15T13:00:59.125Z,22.66
2023-02-15T13:01:59.027Z,22.66
2023-02-15T13:02:58.964Z,22.66
2023-02-15T13:03:58.935Z,22.66
2023-02-15T13:04:58.875Z,22.65
2023-02-15T13:05:58.838Z,22.66
2023-02-15T13:06:58.797Z,22.66
2023-02-15T13:07:58.763Z,22.66
2023-02-15T13:08:58.710Z,22.66
2023-02-15T13:09:58.655Z,22.66
2023-02-15T13:10:58.646Z,22.65
2023-02-15T13:11:58.572Z,22.66
2023-02-15T13:12:58.528Z,22.66
2023-02-15T13:13:58.496Z,22.66
2023-02-15T13:14:58.451Z,22.65
2023-02-15T13:15:58.453Z,22.66
2023-02-15T13:16:58.366Z,22.66
2023-02-15T13:17:58.330Z,22.65
2023-02-15T13:18:58.279Z,22.65
2023-02-15T13:19:58.244Z,22.65
2023-02-15T13:20:58.195Z,22.66
2023-02-15T13:21:58.156Z,22.66
2023-02-15T13:22:58.109Z,22.65
2023-02-15T13:23:58.159Z,22.65
2023-02-15T13:24:58.012Z,22.65
2023-02-15T13:25:57.976Z,22.65
2023-02-15T13:27:13.125Z,22.65
2023-02-15T13:27:57.918Z,22.65
2023-02-15T13:28:57.854Z,22.64
2023-02-15T13:29:57.830Z,22.65
2023-02-15T13:30:57.868Z,22.66
2023-02-15T13:31:57.831Z,22.65
2023-02-15T13:32:57.690Z,22.65
2023-02-15T13:33:57.652Z,22.66
2023-02-15T13:34:57.602Z,22.65
2023-02-15T13:35:57.559Z,22.65
2023-02-15T13:36:57.528Z,22.65
2023-02-15T13:37:57.490Z,22.66
2023-02-15T13:38:57.451Z,22.66
2023-02-15T13:39:57.402Z,22.66
2023-02-15T13:40:57.378Z,22.65
2023-02-15T13:41:57.591Z,22.66
2023-02-15T13:42:57.313Z,22.65